Loch Ness — H3VY — position and weather

sailwx.info

Track history (hours):
 
Tides and Currents Weather Stations Pressure Air Temp Water Temp Dewpoint Dewpoint Depression Visibility Wind Speed Wind Dir Waves Ship Positions

Loch Ness

Last reported at 2017-Dec-04 10:19 UTC. Time now 2017-Dec-12 02:53 UTC.
Position N 31°52' E 031°32'.

Length 200 m; draft 12 m.

Type: Cargo ship. MMSI: 374931000.

Date/timePositionNaut miles runAvg speedWind from/ knotsBaromVisibWave heightAir tempDewpointWater temp
2017-Dec-04 10:19N 31°52' E 031°32'411.0
2017-Dec-04 09:55N 31°54' E 031°27'511.0
2017-Dec-04 09:30N 31°55' E 031°22'3611.2
2017-Dec-04 06:20N 32°06' E 030°42'711.3
2017-Dec-04 05:45N 32°09' E 030°35'311.5
2017-Dec-04 05:30N 32°09' E 030°32'13310.8
2017-Dec-03 17:14N 32°50' E 028°02'210.8
2017-Dec-03 17:00N 32°51' E 027°59'  
2017-Dec-01 05:19N 36°23' E 014°51'414.0
2017-Dec-01 04:59N 36°24' E 014°45'714.2
2017-Dec-01 04:30N 36°26' E 014°37'714.2
2017-Dec-01 04:00N 36°29' E 014°29'714.2
2017-Dec-01 03:30N 36°31' E 014°21'714.4
2017-Dec-01 03:00N 36°33' E 014°12'714.2
2017-Dec-01 02:29N 36°35' E 014°03'  
2017-Nov-24 23:26N 37°11' W 006°56'0 0.4
2017-Nov-24 22:47N 37°11' W 006°55'7 3.5
2017-Nov-24 20:51N 37°05' W 006°51'0 0.0
2017-Nov-24 19:42N 37°05' W 006°51'0 0.1
2017-Nov-24 19:30N 37°05' W 006°51'  
Track history (hours):
 
Tides and Currents Weather Stations Pressure Air Temp Water Temp Dewpoint Dewpoint Depression Visibility Wind Speed Wind Dir Waves Ship Positions

Loch Ness

Last reported at 2017-Dec-04 10:19 UTC. Time now 2017-Dec-12 02:53 UTC.
Position N 31°52' E 031°32'.

Length 200 m; draft 12 m.

Type: Cargo ship. MMSI: 374931000.

Date/timePositionNaut miles runAvg speedWind from/ knotsBaromVisibWave heightAir tempDewpointWater temp
2017-Dec-04 10:19N 31°52' E 031°32'411.0
2017-Dec-04 09:55N 31°54' E 031°27'511.0
2017-Dec-04 09:30N 31°55' E 031°22'3611.2
2017-Dec-04 06:20N 32°06' E 030°42'711.3
2017-Dec-04 05:45N 32°09' E 030°35'311.5
2017-Dec-04 05:30N 32°09' E 030°32'13310.8
2017-Dec-03 17:14N 32°50' E 028°02'210.8
2017-Dec-03 17:00N 32°51' E 027°59'  
2017-Dec-01 05:19N 36°23' E 014°51'414.0
2017-Dec-01 04:59N 36°24' E 014°45'714.2
2017-Dec-01 04:30N 36°26' E 014°37'714.2
2017-Dec-01 04:00N 36°29' E 014°29'714.2
2017-Dec-01 03:30N 36°31' E 014°21'714.4
2017-Dec-01 03:00N 36°33' E 014°12'714.2
2017-Dec-01 02:29N 36°35' E 014°03'  
2017-Nov-24 23:26N 37°11' W 006°56'0 0.4
2017-Nov-24 22:47N 37°11' W 006°55'7 3.5
2017-Nov-24 20:51N 37°05' W 006°51'0 0.0
2017-Nov-24 19:42N 37°05' W 006°51'0 0.1
2017-Nov-24 19:30N 37°05' W 006°51'  

Dump ship's entire track history